sensor_id;sensor_type;location;lat;lon;timestamp;P1;durP1;ratioP1;P2;durP2;ratioP2
23410;SDS011;11878;51.774;7.220;2023-06-01T00:01:19;7.37;;;4.37;;
23410;SDS011;11878;51.774;7.220;2023-06-01T00:04:22;11.67;;;4.93;;
23410;SDS011;11878;51.774;7.220;2023-06-01T00:07:24;14.20;;;4.97;;
23410;SDS011;11878;51.774;7.220;2023-06-01T00:10:25;10.57;;;5.30;;
23410;SDS011;11878;51.774;7.220;2023-06-01T00:13:27;13.30;;;5.03;;
23410;SDS011;11878;51.774;7.220;2023-06-01T00:16:29;9.13;;;4.70;;
23410;SDS011;11878;51.774;7.220;2023-06-01T00:19:34;14.83;;;5.20;;
23410;SDS011;11878;51.774;7.220;2023-06-01T00:22:36;9.90;;;5.70;;
23410;SDS011;11878;51.774;7.220;2023-06-01T00:25:41;10.50;;;5.13;;
23410;SDS011;11878;51.774;7.220;2023-06-01T00:28:42;14.20;;;5.47;;
23410;SDS011;11878;51.774;7.220;2023-06-01T00:31:44;10.33;;;5.57;;
23410;SDS011;11878;51.774;7.220;2023-06-01T00:41:49;16.67;;;5.80;;
23410;SDS011;11878;51.774;7.220;2023-06-01T00:44:51;14.90;;;5.93;;
23410;SDS011;11878;51.774;7.220;2023-06-01T00:47:54;12.17;;;5.67;;
23410;SDS011;11878;51.774;7.220;2023-06-01T00:50:56;12.87;;;6.03;;
23410;SDS011;11878;51.774;7.220;2023-06-01T00:54:00;15.20;;;5.73;;
23410;SDS011;11878;51.774;7.220;2023-06-01T00:57:02;10.80;;;6.00;;
23410;SDS011;11878;51.774;7.220;2023-06-01T01:00:04;12.20;;;6.10;;
23410;SDS011;11878;51.774;7.220;2023-06-01T01:03:10;14.23;;;7.00;;
23410;SDS011;11878;51.774;7.220;2023-06-01T01:06:33;15.43;;;5.93;;
23410;SDS011;11878;51.774;7.220;2023-06-01T01:19:45;9.67;;;5.83;;
23410;SDS011;11878;51.774;7.220;2023-06-01T01:29:28;14.37;;;6.53;;
23410;SDS011;11878;51.774;7.220;2023-06-01T01:32:34;12.07;;;6.63;;
23410;SDS011;11878;51.774;7.220;2023-06-01T01:35:37;15.30;;;6.10;;
23410;SDS011;11878;51.774;7.220;2023-06-01T01:38:40;14.63;;;6.10;;
23410;SDS011;11878;51.774;7.220;2023-06-01T01:41:41;13.73;;;6.93;;
23410;SDS011;11878;51.774;7.220;2023-06-01T01:44:43;13.87;;;6.83;;
23410;SDS011;11878;51.774;7.220;2023-06-01T01:51:35;13.40;;;6.63;;
23410;SDS011;11878;51.774;7.220;2023-06-01T01:54:45;12.47;;;5.90;;
23410;SDS011;11878;51.774;7.220;2023-06-01T01:57:48;17.33;;;6.97;;
23410;SDS011;11878;51.774;7.220;2023-06-01T02:00:53;12.17;;;6.50;;
23410;SDS011;11878;51.774;7.220;2023-06-01T02:04:02;15.33;;;7.03;;
23410;SDS011;11878;51.774;7.220;2023-06-01T02:07:06;15.70;;;6.43;;
23410;SDS011;11878;51.774;7.220;2023-06-01T02:10:08;10.83;;;5.83;;
23410;SDS011;11878;51.774;7.220;2023-06-01T02:13:10;11.83;;;6.00;;
23410;SDS011;11878;51.774;7.220;2023-06-01T02:16:12;11.80;;;6.40;;
23410;SDS011;11878;51.774;7.220;2023-06-01T02:19:14;13.80;;;7.20;;
23410;SDS011;11878;51.774;7.220;2023-06-01T02:25:54;14.03;;;6.33;;
23410;SDS011;11878;51.774;7.220;2023-06-01T02:28:56;10.03;;;6.37;;
23410;SDS011;11878;51.774;7.220;2023-06-01T02:31:58;9.13;;;5.80;;
23410;SDS011;11878;51.774;7.220;2023-06-01T02:35:01;17.73;;;6.57;;
23410;SDS011;11878;51.774;7.220;2023-06-01T02:38:03;14.43;;;6.23;;
23410;SDS011;11878;51.774;7.220;2023-06-01T02:41:05;17.23;;;7.33;;
23410;SDS011;11878;51.774;7.220;2023-06-01T02:47:47;12.60;;;5.77;;
23410;SDS011;11878;51.774;7.220;2023-06-01T02:50:49;12.63;;;5.90;;
23410;SDS011;11878;51.774;7.220;2023-06-01T02:53:51;11.40;;;5.73;;
23410;SDS011;11878;51.774;7.220;2023-06-01T02:56:53;11.80;;;5.53;;
23410;SDS011;11878;51.774;7.220;2023-06-01T02:59:54;12.20;;;5.30;;
23410;SDS011;11878;51.774;7.220;2023-06-01T03:02:56;11.43;;;5.57;;
23410;SDS011;11878;51.774;7.220;2023-06-01T03:05:58;11.47;;;5.63;;
23410;SDS011;11878;51.774;7.220;2023-06-01T03:09:20;11.97;;;5.90;;
23410;SDS011;11878;51.774;7.220;2023-06-01T03:12:28;10.50;;;6.03;;
23410;SDS011;11878;51.774;7.220;2023-06-01T03:15:30;12.70;;;5.70;;
23410;SDS011;11878;51.774;7.220;2023-06-01T03:18:32;9.53;;;4.87;;
23410;SDS011;11878;51.774;7.220;2023-06-01T03:21:38;13.97;;;5.40;;
23410;SDS011;11878;51.774;7.220;2023-06-01T03:24:40;11.77;;;5.70;;
23410;SDS011;11878;51.774;7.220;2023-06-01T03:27:45;11.63;;;5.97;;
23410;SDS011;11878;51.774;7.220;2023-06-01T03:30:47;12.53;;;5.53;;
23410;SDS011;11878;51.774;7.220;2023-06-01T03:37:27;16.00;;;5.80;;
23410;SDS011;11878;51.774;7.220;2023-06-01T03:40:28;10.07;;;5.70;;
23410;SDS011;11878;51.774;7.220;2023-06-01T03:43:31;13.37;;;5.07;;
23410;SDS011;11878;51.774;7.220;2023-06-01T03:46:32;11.10;;;5.23;;
23410;SDS011;11878;51.774;7.220;2023-06-01T03:49:34;15.47;;;5.03;;
23410;SDS011;11878;51.774;7.220;2023-06-01T03:52:40;15.27;;;6.00;;
23410;SDS011;11878;51.774;7.220;2023-06-01T03:59:13;14.13;;;5.80;;
23410;SDS011;11878;51.774;7.220;2023-06-01T04:05:52;11.87;;;5.40;;
23410;SDS011;11878;51.774;7.220;2023-06-01T04:09:00;12.67;;;5.07;;
23410;SDS011;11878;51.774;7.220;2023-06-01T04:15:39;14.30;;;5.40;;
23410;SDS011;11878;51.774;7.220;2023-06-01T04:29:35;11.03;;;5.73;;
23410;SDS011;11878;51.774;7.220;2023-06-01T04:32:41;11.43;;;5.37;;
23410;SDS011;11878;51.774;7.220;2023-06-01T04:39:17;15.33;;;6.23;;
23410;SDS011;11878;51.774;7.220;2023-06-01T04:42:19;14.07;;;6.27;;
23410;SDS011;11878;51.774;7.220;2023-06-01T04:45:25;16.77;;;6.97;;
23410;SDS011;11878;51.774;7.220;2023-06-01T04:48:27;13.67;;;7.03;;
23410;SDS011;11878;51.774;7.220;2023-06-01T04:51:34;11.93;;;6.80;;
23410;SDS011;11878;51.774;7.220;2023-06-01T05:01:26;12.13;;;6.57;;
23410;SDS011;11878;51.774;7.220;2023-06-01T05:19:28;13.77;;;6.27;;
23410;SDS011;11878;51.774;7.220;2023-06-01T05:58:50;11.27;;;5.87;;
23410;SDS011;11878;51.774;7.220;2023-06-01T06:01:54;18.97;;;9.00;;
23410;SDS011;11878;51.774;7.220;2023-06-01T06:04:56;18.87;;;8.70;;
23410;SDS011;11878;51.774;7.220;2023-06-01T06:15:00;19.93;;;11.27;;
23410;SDS011;11878;51.774;7.220;2023-06-01T06:25:17;21.43;;;11.30;;
23410;SDS011;11878;51.774;7.220;2023-06-01T06:31:43;25.47;;;12.20;;
23410;SDS011;11878;51.774;7.220;2023-06-01T07:00:06;30.43;;;14.73;;
23410;SDS011;11878;51.774;7.220;2023-06-01T07:03:09;24.47;;;14.30;;
23410;SDS011;11878;51.774;7.220;2023-06-01T07:06:11;25.23;;;13.50;;
23410;SDS011;11878;51.774;7.220;2023-06-01T07:30:04;17.70;;;10.50;;
23410;SDS011;11878;51.774;7.220;2023-06-01T07:36:46;19.57;;;11.90;;
23410;SDS011;11878;51.774;7.220;2023-06-01T07:39:50;22.43;;;12.20;;
23410;SDS011;11878;51.774;7.220;2023-06-01T07:42:52;24.37;;;12.77;;
23410;SDS011;11878;51.774;7.220;2023-06-01T07:49:25;21.70;;;10.27;;
23410;SDS011;11878;51.774;7.220;2023-06-01T08:04:26;18.17;;;9.73;;
23410;SDS011;11878;51.774;7.220;2023-06-01T08:07:37;21.43;;;10.13;;
23410;SDS011;11878;51.774;7.220;2023-06-01T08:12:09;21.43;;;11.20;;
23410;SDS011;11878;51.774;7.220;2023-06-01T08:34:43;13.83;;;5.93;;
23410;SDS011;11878;51.774;7.220;2023-06-01T08:48:25;15.63;;;6.47;;
23410;SDS011;11878;51.774;7.220;2023-06-01T08:51:27;14.57;;;6.60;;
23410;SDS011;11878;51.774;7.220;2023-06-01T08:54:41;10.90;;;6.27;;
23410;SDS011;11878;51.774;7.220;2023-06-01T08:57:47;13.43;;;6.83;;
23410;SDS011;11878;51.774;7.220;2023-06-01T09:01:01;18.03;;;6.73;;
23410;SDS011;11878;51.774;7.220;2023-06-01T09:04:07;12.73;;;6.47;;
23410;SDS011;11878;51.774;7.220;2023-06-01T09:07:13;11.90;;;6.67;;
23410;SDS011;11878;51.774;7.220;2023-06-01T09:10:19;12.80;;;6.67;;
23410;SDS011;11878;51.774;7.220;2023-06-01T09:31:14;14.90;;;6.10;;
23410;SDS011;11878;51.774;7.220;2023-06-01T09:38:23;12.95;;;6.15;;
23410;SDS011;11878;51.774;7.220;2023-06-01T09:41:25;14.37;;;5.80;;
23410;SDS011;11878;51.774;7.220;2023-06-01T10:05:15;17.77;;;5.93;;
23410;SDS011;11878;51.774;7.220;2023-06-01T10:08:20;14.90;;;6.23;;
23410;SDS011;11878;51.774;7.220;2023-06-01T10:11:22;12.63;;;5.10;;
23410;SDS011;11878;51.774;7.220;2023-06-01T10:14:24;12.20;;;5.17;;
23410;SDS011;11878;51.774;7.220;2023-06-01T10:17:26;11.53;;;5.07;;
23410;SDS011;11878;51.774;7.220;2023-06-01T10:20:28;13.10;;;4.67;;
23410;SDS011;11878;51.774;7.220;2023-06-01T10:23:34;7.67;;;4.37;;
23410;SDS011;11878;51.774;7.220;2023-06-01T10:30:17;7.83;;;4.53;;
23410;SDS011;11878;51.774;7.220;2023-06-01T10:33:53;11.57;;;4.87;;
23410;SDS011;11878;51.774;7.220;2023-06-01T10:46:42;12.53;;;4.70;;
23410;SDS011;11878;51.774;7.220;2023-06-01T10:52:57;7.43;;;4.60;;
23410;SDS011;11878;51.774;7.220;2023-06-01T10:56:31;11.97;;;3.97;;
23410;SDS011;11878;51.774;7.220;2023-06-01T10:59:37;9.13;;;3.93;;
23410;SDS011;11878;51.774;7.220;2023-06-01T11:05:54;8.20;;;3.90;;
23410;SDS011;11878;51.774;7.220;2023-06-01T11:09:00;10.77;;;4.57;;
23410;SDS011;11878;51.774;7.220;2023-06-01T11:12:12;8.63;;;4.20;;
23410;SDS011;11878;51.774;7.220;2023-06-01T11:15:15;11.33;;;4.87;;
23410;SDS011;11878;51.774;7.220;2023-06-01T11:21:48;10.53;;;4.60;;
23410;SDS011;11878;51.774;7.220;2023-06-01T11:25:06;9.40;;;4.57;;
23410;SDS011;11878;51.774;7.220;2023-06-01T11:28:11;10.33;;;4.90;;
23410;SDS011;11878;51.774;7.220;2023-06-01T11:31:15;10.87;;;5.07;;
23410;SDS011;11878;51.774;7.220;2023-06-01T11:34:34;9.03;;;4.87;;
23410;SDS011;11878;51.774;7.220;2023-06-01T11:37:42;8.27;;;4.73;;
23410;SDS011;11878;51.774;7.220;2023-06-01T11:44:15;10.27;;;5.47;;
23410;SDS011;11878;51.774;7.220;2023-06-01T11:47:18;7.13;;;4.73;;
23410;SDS011;11878;51.774;7.220;2023-06-01T11:50:22;12.33;;;5.43;;
23410;SDS011;11878;51.774;7.220;2023-06-01T11:53:29;11.23;;;5.00;;
23410;SDS011;11878;51.774;7.220;2023-06-01T11:56:38;11.93;;;4.57;;
23410;SDS011;11878;51.774;7.220;2023-06-01T11:59:51;11.03;;;5.20;;
23410;SDS011;11878;51.774;7.220;2023-06-01T12:03:04;9.83;;;5.00;;
23410;SDS011;11878;51.774;7.220;2023-06-01T12:06:18;11.27;;;5.07;;
23410;SDS011;11878;51.774;7.220;2023-06-01T12:09:27;11.23;;;5.50;;
23410;SDS011;11878;51.774;7.220;2023-06-01T12:12:31;12.23;;;5.60;;
23410;SDS011;11878;51.774;7.220;2023-06-01T12:15:35;9.87;;;5.47;;
23410;SDS011;11878;51.774;7.220;2023-06-01T12:18:37;9.80;;;5.43;;
23410;SDS011;11878;51.774;7.220;2023-06-01T12:21:46;12.33;;;5.40;;
23410;SDS011;11878;51.774;7.220;2023-06-01T12:24:50;12.47;;;5.00;;
23410;SDS011;11878;51.774;7.220;2023-06-01T12:28:01;10.60;;;5.33;;
23410;SDS011;11878;51.774;7.220;2023-06-01T12:31:11;7.70;;;4.50;;
23410;SDS011;11878;51.774;7.220;2023-06-01T12:34:15;7.37;;;4.40;;
23410;SDS011;11878;51.774;7.220;2023-06-01T12:37:18;9.77;;;5.17;;
23410;SDS011;11878;51.774;7.220;2023-06-01T12:40:24;14.07;;;5.23;;
23410;SDS011;11878;51.774;7.220;2023-06-01T12:43:26;8.20;;;5.30;;
23410;SDS011;11878;51.774;7.220;2023-06-01T12:46:29;18.27;;;5.53;;
23410;SDS011;11878;51.774;7.220;2023-06-01T12:49:35;8.60;;;5.50;;
23410;SDS011;11878;51.774;7.220;2023-06-01T12:52:43;13.47;;;5.80;;
23410;SDS011;11878;51.774;7.220;2023-06-01T12:55:47;10.37;;;6.10;;
23410;SDS011;11878;51.774;7.220;2023-06-01T12:58:49;13.13;;;6.95;;
23410;SDS011;11878;51.774;7.220;2023-06-01T13:01:59;11.33;;;6.07;;
23410;SDS011;11878;51.774;7.220;2023-06-01T13:05:03;9.77;;;5.47;;
23410;SDS011;11878;51.774;7.220;2023-06-01T13:08:10;12.00;;;5.00;;
23410;SDS011;11878;51.774;7.220;2023-06-01T13:11:16;9.83;;;5.50;;
23410;SDS011;11878;51.774;7.220;2023-06-01T13:18:10;11.57;;;5.67;;
23410;SDS011;11878;51.774;7.220;2023-06-01T13:21:14;8.67;;;5.13;;
23410;SDS011;11878;51.774;7.220;2023-06-01T13:31:26;8.57;;;5.07;;
23410;SDS011;11878;51.774;7.220;2023-06-01T13:34:30;8.87;;;4.40;;
23410;SDS011;11878;51.774;7.220;2023-06-01T13:37:33;7.23;;;4.40;;
23410;SDS011;11878;51.774;7.220;2023-06-01T13:40:38;8.20;;;4.03;;
23410;SDS011;11878;51.774;7.220;2023-06-01T13:43:44;12.57;;;4.47;;
23410;SDS011;11878;51.774;7.220;2023-06-01T13:46:48;8.63;;;4.77;;
23410;SDS011;11878;51.774;7.220;2023-06-01T13:49:51;5.73;;;3.97;;
23410;SDS011;11878;51.774;7.220;2023-06-01T13:52:53;8.17;;;4.43;;
23410;SDS011;11878;51.774;7.220;2023-06-01T13:56:02;7.03;;;4.23;;
23410;SDS011;11878;51.774;7.220;2023-06-01T13:59:22;7.77;;;3.87;;
23410;SDS011;11878;51.774;7.220;2023-06-01T14:02:24;8.07;;;4.30;;
23410;SDS011;11878;51.774;7.220;2023-06-01T14:05:29;6.60;;;3.77;;
23410;SDS011;11878;51.774;7.220;2023-06-01T14:08:45;4.70;;;3.00;;
23410;SDS011;11878;51.774;7.220;2023-06-01T14:11:52;7.03;;;3.50;;
23410;SDS011;11878;51.774;7.220;2023-06-01T14:14:54;7.57;;;3.93;;
23410;SDS011;11878;51.774;7.220;2023-06-01T14:17:59;6.63;;;3.60;;
23410;SDS011;11878;51.774;7.220;2023-06-01T14:21:01;9.07;;;4.40;;
23410;SDS011;11878;51.774;7.220;2023-06-01T14:24:09;7.03;;;3.90;;
23410;SDS011;11878;51.774;7.220;2023-06-01T14:27:13;8.73;;;4.20;;
23410;SDS011;11878;51.774;7.220;2023-06-01T14:30:16;6.70;;;4.17;;
23410;SDS011;11878;51.774;7.220;2023-06-01T14:33:19;7.97;;;3.75;;
23410;SDS011;11878;51.774;7.220;2023-06-01T14:36:21;8.87;;;3.60;;
23410;SDS011;11878;51.774;7.220;2023-06-01T14:39:35;6.33;;;3.10;;
23410;SDS011;11878;51.774;7.220;2023-06-01T14:42:41;8.00;;;3.87;;
23410;SDS011;11878;51.774;7.220;2023-06-01T14:45:48;9.27;;;3.70;;
23410;SDS011;11878;51.774;7.220;2023-06-01T14:48:50;8.33;;;4.13;;
23410;SDS011;11878;51.774;7.220;2023-06-01T14:51:52;8.23;;;3.20;;
23410;SDS011;11878;51.774;7.220;2023-06-01T14:54:54;8.60;;;3.80;;
23410;SDS011;11878;51.774;7.220;2023-06-01T14:57:57;7.70;;;4.03;;
23410;SDS011;11878;51.774;7.220;2023-06-01T15:01:00;9.50;;;3.67;;
23410;SDS011;11878;51.774;7.220;2023-06-01T15:04:04;6.87;;;3.80;;
23410;SDS011;11878;51.774;7.220;2023-06-01T15:07:06;7.40;;;3.30;;
23410;SDS011;11878;51.774;7.220;2023-06-01T15:10:11;7.87;;;4.07;;
23410;SDS011;11878;51.774;7.220;2023-06-01T15:13:13;9.13;;;4.20;;
23410;SDS011;11878;51.774;7.220;2023-06-01T15:16:15;10.27;;;4.03;;
23410;SDS011;11878;51.774;7.220;2023-06-01T15:19:21;9.03;;;3.70;;
23410;SDS011;11878;51.774;7.220;2023-06-01T15:22:27;8.57;;;3.33;;
23410;SDS011;11878;51.774;7.220;2023-06-01T15:25:38;9.43;;;3.17;;
23410;SDS011;11878;51.774;7.220;2023-06-01T15:28:42;7.38;;;3.20;;
23410;SDS011;11878;51.774;7.220;2023-06-01T15:31:44;8.63;;;3.75;;
23410;SDS011;11878;51.774;7.220;2023-06-01T15:34:46;5.85;;;3.45;;
23410;SDS011;11878;51.774;7.220;2023-06-01T15:37:48;5.82;;;3.42;;
23410;SDS011;11878;51.774;7.220;2023-06-01T15:40:53;7.85;;;3.88;;
23410;SDS011;11878;51.774;7.220;2023-06-01T15:43:59;6.57;;;3.33;;
23410;SDS011;11878;51.774;7.220;2023-06-01T15:47:01;4.75;;;2.72;;
23410;SDS011;11878;51.774;7.220;2023-06-01T15:50:04;3.95;;;2.97;;
23410;SDS011;11878;51.774;7.220;2023-06-01T15:53:11;5.60;;;2.85;;
23410;SDS011;11878;51.774;7.220;2023-06-01T15:56:13;6.32;;;2.70;;
23410;SDS011;11878;51.774;7.220;2023-06-01T15:59:18;4.65;;;2.45;;
23410;SDS011;11878;51.774;7.220;2023-06-01T16:02:23;4.28;;;2.58;;
23410;SDS011;11878;51.774;7.220;2023-06-01T16:05:31;8.30;;;2.70;;
23410;SDS011;11878;51.774;7.220;2023-06-01T16:08:42;4.72;;;2.80;;
23410;SDS011;11878;51.774;7.220;2023-06-01T16:11:49;3.60;;;2.40;;
23410;SDS011;11878;51.774;7.220;2023-06-01T16:14:51;7.13;;;3.15;;
23410;SDS011;11878;51.774;7.220;2023-06-01T16:17:53;5.28;;;2.80;;
23410;SDS011;11878;51.774;7.220;2023-06-01T16:20:56;5.90;;;2.63;;
23410;SDS011;11878;51.774;7.220;2023-06-01T16:24:02;4.63;;;3.17;;
23410;SDS011;11878;51.774;7.220;2023-06-01T16:27:05;7.93;;;3.55;;
23410;SDS011;11878;51.774;7.220;2023-06-01T16:30:14;9.75;;;3.58;;
23410;SDS011;11878;51.774;7.220;2023-06-01T16:33:17;6.30;;;3.50;;
23410;SDS011;11878;51.774;7.220;2023-06-01T16:36:24;5.43;;;3.03;;
23410;SDS011;11878;51.774;7.220;2023-06-01T16:39:26;6.45;;;3.50;;
23410;SDS011;11878;51.774;7.220;2023-06-01T16:42:29;4.65;;;3.00;;
23410;SDS011;11878;51.774;7.220;2023-06-01T16:45:31;10.87;;;4.10;;
23410;SDS011;11878;51.774;7.220;2023-06-01T16:48:35;4.88;;;3.20;;
23410;SDS011;11878;51.774;7.220;2023-06-01T16:51:37;5.97;;;3.40;;
23410;SDS011;11878;51.774;7.220;2023-06-01T16:54:42;6.03;;;2.85;;
23410;SDS011;11878;51.774;7.220;2023-06-01T16:57:47;5.00;;;3.28;;
23410;SDS011;11878;51.774;7.220;2023-06-01T17:00:52;5.50;;;2.88;;
23410;SDS011;11878;51.774;7.220;2023-06-01T17:03:55;7.72;;;3.67;;
23410;SDS011;11878;51.774;7.220;2023-06-01T17:07:02;5.87;;;3.20;;
23410;SDS011;11878;51.774;7.220;2023-06-01T17:10:06;4.75;;;3.00;;
23410;SDS011;11878;51.774;7.220;2023-06-01T17:13:18;5.13;;;2.80;;
23410;SDS011;11878;51.774;7.220;2023-06-01T17:16:21;8.30;;;3.23;;
23410;SDS011;11878;51.774;7.220;2023-06-01T17:19:27;8.75;;;3.15;;
23410;SDS011;11878;51.774;7.220;2023-06-01T17:22:31;7.30;;;2.80;;
23410;SDS011;11878;51.774;7.220;2023-06-01T17:25:33;10.03;;;2.63;;
23410;SDS011;11878;51.774;7.220;2023-06-01T17:28:35;4.73;;;2.50;;
23410;SDS011;11878;51.774;7.220;2023-06-01T17:31:41;7.90;;;2.67;;
23410;SDS011;11878;51.774;7.220;2023-06-01T17:34:43;8.27;;;2.67;;
23410;SDS011;11878;51.774;7.220;2023-06-01T17:37:48;8.90;;;2.80;;
23410;SDS011;11878;51.774;7.220;2023-06-01T17:40:50;6.63;;;2.13;;
23410;SDS011;11878;51.774;7.220;2023-06-01T17:43:57;7.47;;;2.73;;
23410;SDS011;11878;51.774;7.220;2023-06-01T17:47:03;7.83;;;2.43;;
23410;SDS011;11878;51.774;7.220;2023-06-01T17:50:13;7.23;;;2.90;;
23410;SDS011;11878;51.774;7.220;2023-06-01T17:53:18;8.40;;;2.87;;
23410;SDS011;11878;51.774;7.220;2023-06-01T17:56:23;5.60;;;2.23;;
23410;SDS011;11878;51.774;7.220;2023-06-01T17:59:31;12.83;;;2.80;;
23410;SDS011;11878;51.774;7.220;2023-06-01T18:02:45;6.07;;;2.33;;
23410;SDS011;11878;51.774;7.220;2023-06-01T18:05:51;12.90;;;3.53;;
23410;SDS011;11878;51.774;7.220;2023-06-01T18:08:54;8.83;;;2.70;;
23410;SDS011;11878;51.774;7.220;2023-06-01T18:11:58;5.90;;;3.33;;
23410;SDS011;11878;51.774;7.220;2023-06-01T18:15:03;10.00;;;2.87;;
23410;SDS011;11878;51.774;7.220;2023-06-01T18:18:06;9.30;;;2.97;;
23410;SDS011;11878;51.774;7.220;2023-06-01T18:21:12;3.97;;;2.10;;
23410;SDS011;11878;51.774;7.220;2023-06-01T18:24:20;7.90;;;2.70;;
23410;SDS011;11878;51.774;7.220;2023-06-01T18:27:27;6.03;;;2.20;;
23410;SDS011;11878;51.774;7.220;2023-06-01T18:30:30;9.10;;;2.47;;
23410;SDS011;11878;51.774;7.220;2023-06-01T18:33:48;5.27;;;2.60;;
23410;SDS011;11878;51.774;7.220;2023-06-01T18:36:50;6.53;;;2.60;;
23410;SDS011;11878;51.774;7.220;2023-06-01T18:39:56;11.73;;;2.50;;
23410;SDS011;11878;51.774;7.220;2023-06-01T18:43:01;7.70;;;2.50;;
23410;SDS011;11878;51.774;7.220;2023-06-01T18:46:17;8.50;;;2.30;;
23410;SDS011;11878;51.774;7.220;2023-06-01T18:49:20;5.27;;;2.47;;
23410;SDS011;11878;51.774;7.220;2023-06-01T18:52:23;8.37;;;1.97;;
23410;SDS011;11878;51.774;7.220;2023-06-01T18:55:28;7.80;;;2.47;;
23410;SDS011;11878;51.774;7.220;2023-06-01T18:58:31;9.53;;;2.77;;
23410;SDS011;11878;51.774;7.220;2023-06-01T19:01:33;7.03;;;2.43;;
23410;SDS011;11878;51.774;7.220;2023-06-01T19:08:59;8.70;;;2.60;;
23410;SDS011;11878;51.774;7.220;2023-06-01T19:12:03;12.90;;;2.70;;
23410;SDS011;11878;51.774;7.220;2023-06-01T19:15:08;6.47;;;2.20;;
23410;SDS011;11878;51.774;7.220;2023-06-01T19:18:14;8.77;;;2.70;;
23410;SDS011;11878;51.774;7.220;2023-06-01T19:21:17;10.17;;;2.70;;
23410;SDS011;11878;51.774;7.220;2023-06-01T19:24:23;10.13;;;3.23;;
23410;SDS011;11878;51.774;7.220;2023-06-01T19:27:27;5.23;;;2.83;;
23410;SDS011;11878;51.774;7.220;2023-06-01T19:40:23;5.57;;;2.37;;
23410;SDS011;11878;51.774;7.220;2023-06-01T20:01:14;5.53;;;1.90;;
23410;SDS011;11878;51.774;7.220;2023-06-01T20:07:55;6.63;;;1.87;;
23410;SDS011;11878;51.774;7.220;2023-06-01T20:11:02;4.70;;;1.83;;
23410;SDS011;11878;51.774;7.220;2023-06-01T20:14:11;3.67;;;2.23;;
23410;SDS011;11878;51.774;7.220;2023-06-01T20:17:17;7.77;;;2.30;;
23410;SDS011;11878;51.774;7.220;2023-06-01T20:20:19;6.47;;;2.07;;
23410;SDS011;11878;51.774;7.220;2023-06-01T20:23:21;5.17;;;2.00;;
23410;SDS011;11878;51.774;7.220;2023-06-01T20:26:23;6.00;;;2.00;;
23410;SDS011;11878;51.774;7.220;2023-06-01T20:29:29;5.07;;;1.83;;
23410;SDS011;11878;51.774;7.220;2023-06-01T20:32:32;4.27;;;1.53;;
23410;SDS011;11878;51.774;7.220;2023-06-01T20:35:34;5.57;;;1.87;;
23410;SDS011;11878;51.774;7.220;2023-06-01T20:45:59;6.93;;;1.90;;
23410;SDS011;11878;51.774;7.220;2023-06-01T20:49:04;4.27;;;1.93;;
23410;SDS011;11878;51.774;7.220;2023-06-01T20:52:08;5.60;;;1.57;;
23410;SDS011;11878;51.774;7.220;2023-06-01T20:58:41;5.43;;;1.20;;
23410;SDS011;11878;51.774;7.220;2023-06-01T21:01:43;3.47;;;1.10;;
23410;SDS011;11878;51.774;7.220;2023-06-01T21:04:47;5.00;;;1.60;;
23410;SDS011;11878;51.774;7.220;2023-06-01T21:07:49;7.73;;;1.60;;
23410;SDS011;11878;51.774;7.220;2023-06-01T21:10:52;4.80;;;1.30;;
23410;SDS011;11878;51.774;7.220;2023-06-01T21:13:54;4.80;;;1.10;;
23410;SDS011;11878;51.774;7.220;2023-06-01T21:20:27;5.53;;;1.20;;
23410;SDS011;11878;51.774;7.220;2023-06-01T21:30:44;5.83;;;1.20;;
23410;SDS011;11878;51.774;7.220;2023-06-01T21:33:46;7.30;;;1.53;;
23410;SDS011;11878;51.774;7.220;2023-06-01T21:36:48;5.77;;;1.30;;
23410;SDS011;11878;51.774;7.220;2023-06-01T21:39:50;2.23;;;1.40;;
23410;SDS011;11878;51.774;7.220;2023-06-01T21:42:52;3.33;;;1.20;;
23410;SDS011;11878;51.774;7.220;2023-06-01T21:45:54;4.53;;;1.57;;
23410;SDS011;11878;51.774;7.220;2023-06-01T21:48:56;3.90;;;1.20;;
23410;SDS011;11878;51.774;7.220;2023-06-01T21:51:58;3.83;;;1.30;;
23410;SDS011;11878;51.774;7.220;2023-06-01T21:55:00;2.43;;;1.40;;
23410;SDS011;11878;51.774;7.220;2023-06-01T21:58:02;8.43;;;1.40;;
23410;SDS011;11878;51.774;7.220;2023-06-01T22:01:04;4.93;;;1.10;;
23410;SDS011;11878;51.774;7.220;2023-06-01T22:04:07;4.30;;;1.00;;
23410;SDS011;11878;51.774;7.220;2023-06-01T22:07:12;4.13;;;1.47;;
23410;SDS011;11878;51.774;7.220;2023-06-01T22:10:16;5.97;;;1.80;;
23410;SDS011;11878;51.774;7.220;2023-06-01T22:13:18;7.90;;;1.93;;
23410;SDS011;11878;51.774;7.220;2023-06-01T22:16:19;3.47;;;1.67;;
23410;SDS011;11878;51.774;7.220;2023-06-01T22:19:21;3.57;;;1.63;;
23410;SDS011;11878;51.774;7.220;2023-06-01T22:22:24;2.77;;;1.63;;
23410;SDS011;11878;51.774;7.220;2023-06-01T22:25:26;5.63;;;1.40;;
23410;SDS011;11878;51.774;7.220;2023-06-01T22:28:28;5.70;;;1.60;;
23410;SDS011;11878;51.774;7.220;2023-06-01T22:31:30;5.90;;;1.93;;
23410;SDS011;11878;51.774;7.220;2023-06-01T22:34:32;9.20;;;2.27;;
23410;SDS011;11878;51.774;7.220;2023-06-01T22:37:34;14.33;;;2.03;;
23410;SDS011;11878;51.774;7.220;2023-06-01T22:40:37;3.00;;;1.53;;
23410;SDS011;11878;51.774;7.220;2023-06-01T22:43:39;6.40;;;2.03;;
23410;SDS011;11878;51.774;7.220;2023-06-01T22:46:41;8.47;;;2.00;;
23410;SDS011;11878;51.774;7.220;2023-06-01T22:49:43;6.13;;;2.20;;
23410;SDS011;11878;51.774;7.220;2023-06-01T22:52:45;5.43;;;1.87;;
23410;SDS011;11878;51.774;7.220;2023-06-01T22:55:47;4.27;;;2.00;;
23410;SDS011;11878;51.774;7.220;2023-06-01T22:58:49;5.83;;;1.70;;
23410;SDS011;11878;51.774;7.220;2023-06-01T23:01:51;6.77;;;1.70;;
23410;SDS011;11878;51.774;7.220;2023-06-01T23:04:53;7.33;;;2.20;;
23410;SDS011;11878;51.774;7.220;2023-06-01T23:07:55;6.80;;;2.03;;
23410;SDS011;11878;51.774;7.220;2023-06-01T23:10:57;5.13;;;1.60;;
23410;SDS011;11878;51.774;7.220;2023-06-01T23:14:02;7.50;;;1.80;;
23410;SDS011;11878;51.774;7.220;2023-06-01T23:17:12;6.30;;;1.93;;
23410;SDS011;11878;51.774;7.220;2023-06-01T23:20:15;6.63;;;2.00;;
23410;SDS011;11878;51.774;7.220;2023-06-01T23:23:17;5.97;;;1.60;;
23410;SDS011;11878;51.774;7.220;2023-06-01T23:26:20;7.40;;;1.83;;
23410;SDS011;11878;51.774;7.220;2023-06-01T23:29:22;7.13;;;1.50;;
23410;SDS011;11878;51.774;7.220;2023-06-01T23:32:24;3.53;;;1.60;;
23410;SDS011;11878;51.774;7.220;2023-06-01T23:35:26;7.53;;;1.70;;
23410;SDS011;11878;51.774;7.220;2023-06-01T23:38:28;13.33;;;2.20;;
23410;SDS011;11878;51.774;7.220;2023-06-01T23:41:30;8.47;;;1.77;;
23410;SDS011;11878;51.774;7.220;2023-06-01T23:44:32;5.27;;;1.63;;
23410;SDS011;11878;51.774;7.220;2023-06-01T23:47:34;9.30;;;1.77;;
23410;SDS011;11878;51.774;7.220;2023-06-01T23:50:38;6.03;;;1.70;;
23410;SDS011;11878;51.774;7.220;2023-06-01T23:53:40;6.63;;;1.67;;
23410;SDS011;11878;51.774;7.220;2023-06-01T23:56:41;6.00;;;2.10;;
23410;SDS011;11878;51.774;7.220;2023-06-01T23:59:43;7.20;;;2.10;;
